sensor_id;sensor_type;location;lat;lon;timestamp;temperature;humidity
9998;DHT22;5038;53.064;8.624;2023-07-13T00:01:09;17.90;99.90
9998;DHT22;5038;53.064;8.624;2023-07-13T00:03:38;17.90;99.90
9998;DHT22;5038;53.064;8.624;2023-07-13T00:06:08;17.90;99.90
9998;DHT22;5038;53.064;8.624;2023-07-13T00:08:37;17.90;99.90
9998;DHT22;5038;53.064;8.624;2023-07-13T00:11:07;17.80;99.90
9998;DHT22;5038;53.064;8.624;2023-07-13T00:13:37;17.80;99.90
9998;DHT22;5038;53.064;8.624;2023-07-13T00:16:08;17.70;99.90
9998;DHT22;5038;53.064;8.624;2023-07-13T00:18:37;17.70;99.90
9998;DHT22;5038;53.064;8.624;2023-07-13T00:21:05;17.70;99.90
9998;DHT22;5038;53.064;8.624;2023-07-13T00:23:35;17.60;99.90
9998;DHT22;5038;53.064;8.624;2023-07-13T00:26:04;17.60;99.90
9998;DHT22;5038;53.064;8.624;2023-07-13T00:28:35;17.60;99.90
9998;DHT22;5038;53.064;8.624;2023-07-13T00:31:03;17.60;99.90
9998;DHT22;5038;53.064;8.624;2023-07-13T00:33:35;17.50;99.90
9998;DHT22;5038;53.064;8.624;2023-07-13T00:36:04;17.50;99.90
9998;DHT22;5038;53.064;8.624;2023-07-13T00:38:32;17.50;99.90
9998;DHT22;5038;53.064;8.624;2023-07-13T00:41:01;17.50;99.90
9998;DHT22;5038;53.064;8.624;2023-07-13T00:43:30;17.40;99.90
9998;DHT22;5038;53.064;8.624;2023-07-13T00:46:22;17.40;99.90
9998;DHT22;5038;53.064;8.624;2023-07-13T00:48:53;17.40;99.90
9998;DHT22;5038;53.064;8.624;2023-07-13T00:51:27;17.40;99.90
9998;DHT22;5038;53.064;8.624;2023-07-13T00:53:59;17.40;99.90
9998;DHT22;5038;53.064;8.624;2023-07-13T00:56:28;17.30;99.90
9998;DHT22;5038;53.064;8.624;2023-07-13T00:59:00;17.30;99.90
9998;DHT22;5038;53.064;8.624;2023-07-13T01:01:31;17.30;99.90
9998;DHT22;5038;53.064;8.624;2023-07-13T01:04:00;17.20;99.90
9998;DHT22;5038;53.064;8.624;2023-07-13T01:06:28;17.20;99.90
9998;DHT22;5038;53.064;8.624;2023-07-13T01:08:59;17.20;99.90
9998;DHT22;5038;53.064;8.624;2023-07-13T01:11:27;17.10;99.90
9998;DHT22;5038;53.064;8.624;2023-07-13T01:13:56;17.10;99.90
9998;DHT22;5038;53.064;8.624;2023-07-13T01:16:25;17.10;99.90
9998;DHT22;5038;53.064;8.624;2023-07-13T01:18:56;17.10;99.90
9998;DHT22;5038;53.064;8.624;2023-07-13T01:21:29;17.10;99.90
9998;DHT22;5038;53.064;8.624;2023-07-13T01:23:59;17.00;99.90
9998;DHT22;5038;53.064;8.624;2023-07-13T01:26:27;17.00;99.90
9998;DHT22;5038;53.064;8.624;2023-07-13T01:28:55;17.00;99.90
9998;DHT22;5038;53.064;8.624;2023-07-13T01:31:24;17.00;99.90
9998;DHT22;5038;53.064;8.624;2023-07-13T01:33:52;17.00;99.90
9998;DHT22;5038;53.064;8.624;2023-07-13T01:36:21;17.00;99.90
9998;DHT22;5038;53.064;8.624;2023-07-13T01:38:50;16.90;99.90
9998;DHT22;5038;53.064;8.624;2023-07-13T01:41:19;16.90;99.90
9998;DHT22;5038;53.064;8.624;2023-07-13T01:43:47;16.90;99.90
9998;DHT22;5038;53.064;8.624;2023-07-13T01:46:17;16.90;99.90
9998;DHT22;5038;53.064;8.624;2023-07-13T01:48:50;16.90;99.90
9998;DHT22;5038;53.064;8.624;2023-07-13T01:51:19;16.90;99.90
9998;DHT22;5038;53.064;8.624;2023-07-13T01:53:47;16.90;99.90
9998;DHT22;5038;53.064;8.624;2023-07-13T01:56:18;16.90;99.90
9998;DHT22;5038;53.064;8.624;2023-07-13T01:58:47;16.90;99.90
9998;DHT22;5038;53.064;8.624;2023-07-13T02:01:15;16.90;99.90
9998;DHT22;5038;53.064;8.624;2023-07-13T02:03:44;16.80;99.90
9998;DHT22;5038;53.064;8.624;2023-07-13T02:06:13;16.80;99.90
9998;DHT22;5038;53.064;8.624;2023-07-13T02:08:41;16.80;99.90
9998;DHT22;5038;53.064;8.624;2023-07-13T02:11:10;16.80;99.90
9998;DHT22;5038;53.064;8.624;2023-07-13T02:13:40;16.80;99.90
9998;DHT22;5038;53.064;8.624;2023-07-13T02:16:08;16.80;99.90
9998;DHT22;5038;53.064;8.624;2023-07-13T02:18:36;16.80;99.90
9998;DHT22;5038;53.064;8.624;2023-07-13T02:21:05;16.70;99.90
9998;DHT22;5038;53.064;8.624;2023-07-13T02:23:33;16.80;99.90
9998;DHT22;5038;53.064;8.624;2023-07-13T02:26:03;16.70;99.90
9998;DHT22;5038;53.064;8.624;2023-07-13T02:28:31;16.70;99.90
9998;DHT22;5038;53.064;8.624;2023-07-13T02:31:06;16.70;99.90
9998;DHT22;5038;53.064;8.624;2023-07-13T02:33:34;16.60;99.90
9998;DHT22;5038;53.064;8.624;2023-07-13T02:36:03;16.60;99.90
9998;DHT22;5038;53.064;8.624;2023-07-13T02:38:32;16.60;99.90
9998;DHT22;5038;53.064;8.624;2023-07-13T02:41:01;16.60;99.90
9998;DHT22;5038;53.064;8.624;2023-07-13T02:43:30;16.60;99.90
9998;DHT22;5038;53.064;8.624;2023-07-13T02:45:58;16.60;99.90
9998;DHT22;5038;53.064;8.624;2023-07-13T02:48:32;16.60;99.90
9998;DHT22;5038;53.064;8.624;2023-07-13T02:51:00;16.50;99.90
9998;DHT22;5038;53.064;8.624;2023-07-13T02:53:29;16.50;99.90
9998;DHT22;5038;53.064;8.624;2023-07-13T02:55:57;16.50;99.90
9998;DHT22;5038;53.064;8.624;2023-07-13T02:58:25;16.50;99.90
9998;DHT22;5038;53.064;8.624;2023-07-13T03:00:55;16.50;99.90
9998;DHT22;5038;53.064;8.624;2023-07-13T03:03:25;16.50;99.90
9998;DHT22;5038;53.064;8.624;2023-07-13T03:06:00;16.50;99.90
9998;DHT22;5038;53.064;8.624;2023-07-13T03:08:35;16.40;99.90
9998;DHT22;5038;53.064;8.624;2023-07-13T03:11:05;16.40;99.90
9998;DHT22;5038;53.064;8.624;2023-07-13T03:13:37;16.40;99.90
9998;DHT22;5038;53.064;8.624;2023-07-13T03:16:06;16.40;99.90
9998;DHT22;5038;53.064;8.624;2023-07-13T03:18:35;16.40;99.90
9998;DHT22;5038;53.064;8.624;2023-07-13T03:21:08;16.40;99.90
9998;DHT22;5038;53.064;8.624;2023-07-13T03:23:36;16.40;99.90
9998;DHT22;5038;53.064;8.624;2023-07-13T03:26:06;16.40;99.90
9998;DHT22;5038;53.064;8.624;2023-07-13T03:28:35;16.40;99.90
9998;DHT22;5038;53.064;8.624;2023-07-13T03:31:06;16.40;99.90
9998;DHT22;5038;53.064;8.624;2023-07-13T03:33:36;16.40;99.90
9998;DHT22;5038;53.064;8.624;2023-07-13T03:36:09;16.40;99.90
9998;DHT22;5038;53.064;8.624;2023-07-13T03:38:38;16.40;99.90
9998;DHT22;5038;53.064;8.624;2023-07-13T03:41:06;16.40;99.90
9998;DHT22;5038;53.064;8.624;2023-07-13T03:43:34;16.40;99.90
9998;DHT22;5038;53.064;8.624;2023-07-13T03:46:03;16.40;99.90
9998;DHT22;5038;53.064;8.624;2023-07-13T03:48:31;16.40;99.90
9998;DHT22;5038;53.064;8.624;2023-07-13T03:51:00;16.40;99.90
9998;DHT22;5038;53.064;8.624;2023-07-13T03:53:30;16.40;99.90
9998;DHT22;5038;53.064;8.624;2023-07-13T03:55:58;16.40;99.90
9998;DHT22;5038;53.064;8.624;2023-07-13T03:58:31;16.40;99.90
9998;DHT22;5038;53.064;8.624;2023-07-13T04:01:09;16.40;99.90
9998;DHT22;5038;53.064;8.624;2023-07-13T04:03:38;16.50;99.90
9998;DHT22;5038;53.064;8.624;2023-07-13T04:06:12;16.40;99.90
9998;DHT22;5038;53.064;8.624;2023-07-13T04:08:45;16.50;99.90
9998;DHT22;5038;53.064;8.624;2023-07-13T04:11:13;16.50;99.90
9998;DHT22;5038;53.064;8.624;2023-07-13T04:13:41;16.50;99.90
9998;DHT22;5038;53.064;8.624;2023-07-13T04:16:09;16.50;99.90
9998;DHT22;5038;53.064;8.624;2023-07-13T04:18:38;16.50;99.90
9998;DHT22;5038;53.064;8.624;2023-07-13T04:21:06;16.50;99.90
9998;DHT22;5038;53.064;8.624;2023-07-13T04:23:35;16.60;99.90
9998;DHT22;5038;53.064;8.624;2023-07-13T04:26:05;16.60;99.90
9998;DHT22;5038;53.064;8.624;2023-07-13T04:28:33;16.60;99.90
9998;DHT22;5038;53.064;8.624;2023-07-13T04:31:02;16.60;99.90
9998;DHT22;5038;53.064;8.624;2023-07-13T04:33:31;16.50;99.90
9998;DHT22;5038;53.064;8.624;2023-07-13T04:36:00;16.60;99.90
9998;DHT22;5038;53.064;8.624;2023-07-13T04:38:31;16.60;99.90
9998;DHT22;5038;53.064;8.624;2023-07-13T04:41:05;16.60;99.90
9998;DHT22;5038;53.064;8.624;2023-07-13T04:43:34;16.60;99.90
9998;DHT22;5038;53.064;8.624;2023-07-13T04:46:06;16.60;99.90
9998;DHT22;5038;53.064;8.624;2023-07-13T04:48:36;16.70;99.90
9998;DHT22;5038;53.064;8.624;2023-07-13T04:51:04;16.70;99.90
9998;DHT22;5038;53.064;8.624;2023-07-13T04:53:33;16.70;99.90
9998;DHT22;5038;53.064;8.624;2023-07-13T04:56:02;16.70;99.90
9998;DHT22;5038;53.064;8.624;2023-07-13T04:58:33;16.70;99.90
9998;DHT22;5038;53.064;8.624;2023-07-13T05:01:02;16.70;99.90
9998;DHT22;5038;53.064;8.624;2023-07-13T05:03:31;16.70;99.90
9998;DHT22;5038;53.064;8.624;2023-07-13T05:06:03;16.70;99.90
9998;DHT22;5038;53.064;8.624;2023-07-13T05:08:32;16.70;99.90
9998;DHT22;5038;53.064;8.624;2023-07-13T05:11:00;16.80;99.90
9998;DHT22;5038;53.064;8.624;2023-07-13T05:13:29;16.80;99.90
9998;DHT22;5038;53.064;8.624;2023-07-13T05:16:00;16.80;99.90
9998;DHT22;5038;53.064;8.624;2023-07-13T05:18:30;16.80;99.90
9998;DHT22;5038;53.064;8.624;2023-07-13T05:21:01;16.80;99.90
9998;DHT22;5038;53.064;8.624;2023-07-13T05:23:30;16.80;99.90
9998;DHT22;5038;53.064;8.624;2023-07-13T05:25:59;16.80;99.90
9998;DHT22;5038;53.064;8.624;2023-07-13T05:28:28;16.80;99.90
9998;DHT22;5038;53.064;8.624;2023-07-13T05:30:58;16.80;99.90
9998;DHT22;5038;53.064;8.624;2023-07-13T05:33:27;16.80;99.90
9998;DHT22;5038;53.064;8.624;2023-07-13T05:35:56;16.90;99.90
9998;DHT22;5038;53.064;8.624;2023-07-13T05:38:25;16.90;99.90
9998;DHT22;5038;53.064;8.624;2023-07-13T05:40:54;17.00;99.90
9998;DHT22;5038;53.064;8.624;2023-07-13T05:43:25;17.00;99.90
9998;DHT22;5038;53.064;8.624;2023-07-13T05:45:56;17.10;99.90
9998;DHT22;5038;53.064;8.624;2023-07-13T05:48:26;17.20;99.90
9998;DHT22;5038;53.064;8.624;2023-07-13T05:50:54;17.30;99.90
9998;DHT22;5038;53.064;8.624;2023-07-13T05:53:22;17.40;99.90
9998;DHT22;5038;53.064;8.624;2023-07-13T05:55:51;17.50;99.90
9998;DHT22;5038;53.064;8.624;2023-07-13T05:58:22;17.60;99.90
9998;DHT22;5038;53.064;8.624;2023-07-13T06:01:00;17.80;99.90
9998;DHT22;5038;53.064;8.624;2023-07-13T06:03:31;18.00;99.90
9998;DHT22;5038;53.064;8.624;2023-07-13T06:06:00;18.00;99.90
9998;DHT22;5038;53.064;8.624;2023-07-13T06:08:29;18.20;99.90
9998;DHT22;5038;53.064;8.624;2023-07-13T06:11:03;18.40;99.90
9998;DHT22;5038;53.064;8.624;2023-07-13T06:13:34;18.60;99.90
9998;DHT22;5038;53.064;8.624;2023-07-13T06:16:04;18.70;99.90
9998;DHT22;5038;53.064;8.624;2023-07-13T06:18:36;18.80;99.90
9998;DHT22;5038;53.064;8.624;2023-07-13T06:21:09;18.80;99.90
9998;DHT22;5038;53.064;8.624;2023-07-13T06:23:38;18.80;99.90
9998;DHT22;5038;53.064;8.624;2023-07-13T06:26:07;18.70;99.90
9998;DHT22;5038;53.064;8.624;2023-07-13T06:28:37;18.80;99.90
9998;DHT22;5038;53.064;8.624;2023-07-13T06:31:08;18.80;99.90
9998;DHT22;5038;53.064;8.624;2023-07-13T06:33:38;18.80;99.90
9998;DHT22;5038;53.064;8.624;2023-07-13T06:36:08;19.10;99.90
9998;DHT22;5038;53.064;8.624;2023-07-13T06:38:36;19.30;99.90
9998;DHT22;5038;53.064;8.624;2023-07-13T06:41:06;19.40;99.90
9998;DHT22;5038;53.064;8.624;2023-07-13T06:43:36;19.60;99.90
9998;DHT22;5038;53.064;8.624;2023-07-13T06:46:05;19.70;99.90
9998;DHT22;5038;53.064;8.624;2023-07-13T06:48:34;19.80;99.90
9998;DHT22;5038;53.064;8.624;2023-07-13T06:51:04;19.70;99.90
9998;DHT22;5038;53.064;8.624;2023-07-13T06:53:37;19.70;99.90
9998;DHT22;5038;53.064;8.624;2023-07-13T06:56:06;19.70;99.90
9998;DHT22;5038;53.064;8.624;2023-07-13T06:58:35;19.80;99.90
9998;DHT22;5038;53.064;8.624;2023-07-13T07:01:04;19.90;99.90
9998;DHT22;5038;53.064;8.624;2023-07-13T07:03:35;19.90;99.90
9998;DHT22;5038;53.064;8.624;2023-07-13T07:06:13;20.10;99.90
9998;DHT22;5038;53.064;8.624;2023-07-13T07:08:42;20.20;99.90
9998;DHT22;5038;53.064;8.624;2023-07-13T07:11:13;20.20;99.90
9998;DHT22;5038;53.064;8.624;2023-07-13T07:13:42;20.20;99.90
9998;DHT22;5038;53.064;8.624;2023-07-13T07:16:11;20.30;99.90
9998;DHT22;5038;53.064;8.624;2023-07-13T07:18:40;20.40;99.90
9998;DHT22;5038;53.064;8.624;2023-07-13T07:21:10;20.50;99.90
9998;DHT22;5038;53.064;8.624;2023-07-13T07:23:40;20.50;99.90
9998;DHT22;5038;53.064;8.624;2023-07-13T07:26:09;20.60;99.90
9998;DHT22;5038;53.064;8.624;2023-07-13T07:28:38;20.60;99.90
9998;DHT22;5038;53.064;8.624;2023-07-13T07:31:10;20.70;99.90
9998;DHT22;5038;53.064;8.624;2023-07-13T07:33:41;20.70;99.90
9998;DHT22;5038;53.064;8.624;2023-07-13T07:36:11;20.70;99.90
9998;DHT22;5038;53.064;8.624;2023-07-13T07:38:43;20.80;99.90
9998;DHT22;5038;53.064;8.624;2023-07-13T07:41:11;20.80;99.90
9998;DHT22;5038;53.064;8.624;2023-07-13T07:43:43;20.90;99.90
9998;DHT22;5038;53.064;8.624;2023-07-13T07:46:11;20.90;99.90
9998;DHT22;5038;53.064;8.624;2023-07-13T07:48:40;21.00;99.90
9998;DHT22;5038;53.064;8.624;2023-07-13T07:51:09;21.00;99.90
9998;DHT22;5038;53.064;8.624;2023-07-13T07:53:39;21.10;99.90
9998;DHT22;5038;53.064;8.624;2023-07-13T07:56:07;21.20;99.90
9998;DHT22;5038;53.064;8.624;2023-07-13T07:58:40;21.20;99.90
9998;DHT22;5038;53.064;8.624;2023-07-13T08:01:11;21.30;99.90
9998;DHT22;5038;53.064;8.624;2023-07-13T08:03:42;21.30;99.90
9998;DHT22;5038;53.064;8.624;2023-07-13T08:06:14;21.40;99.90
9998;DHT22;5038;53.064;8.624;2023-07-13T08:09:04;21.50;99.90
9998;DHT22;5038;53.064;8.624;2023-07-13T08:11:32;21.40;99.90
9998;DHT22;5038;53.064;8.624;2023-07-13T08:14:03;21.30;99.90
9998;DHT22;5038;53.064;8.624;2023-07-13T08:16:32;21.30;99.90
9998;DHT22;5038;53.064;8.624;2023-07-13T08:19:01;21.20;99.90
9998;DHT22;5038;53.064;8.624;2023-07-13T08:21:31;21.30;99.90
9998;DHT22;5038;53.064;8.624;2023-07-13T08:23:59;21.30;99.90
9998;DHT22;5038;53.064;8.624;2023-07-13T08:26:28;21.40;99.90
9998;DHT22;5038;53.064;8.624;2023-07-13T08:28:57;21.50;99.90
9998;DHT22;5038;53.064;8.624;2023-07-13T08:31:25;21.50;99.90
9998;DHT22;5038;53.064;8.624;2023-07-13T08:33:54;21.60;99.90
9998;DHT22;5038;53.064;8.624;2023-07-13T08:36:23;21.60;99.90
9998;DHT22;5038;53.064;8.624;2023-07-13T08:38:52;21.70;99.90
9998;DHT22;5038;53.064;8.624;2023-07-13T08:41:21;21.70;99.90
9998;DHT22;5038;53.064;8.624;2023-07-13T08:43:54;21.70;99.90
9998;DHT22;5038;53.064;8.624;2023-07-13T08:46:27;21.70;99.90
9998;DHT22;5038;53.064;8.624;2023-07-13T08:48:58;21.60;99.90
9998;DHT22;5038;53.064;8.624;2023-07-13T08:51:41;21.70;99.90
9998;DHT22;5038;53.064;8.624;2023-07-13T08:54:19;21.70;99.90
9998;DHT22;5038;53.064;8.624;2023-07-13T08:56:49;21.80;99.90
9998;DHT22;5038;53.064;8.624;2023-07-13T08:59:24;21.80;99.90
9998;DHT22;5038;53.064;8.624;2023-07-13T09:02:00;21.90;99.90
9998;DHT22;5038;53.064;8.624;2023-07-13T09:04:37;21.90;99.90
9998;DHT22;5038;53.064;8.624;2023-07-13T09:07:17;22.00;99.90
9998;DHT22;5038;53.064;8.624;2023-07-13T09:10:03;22.10;99.90
9998;DHT22;5038;53.064;8.624;2023-07-13T09:12:42;22.20;99.90
9998;DHT22;5038;53.064;8.624;2023-07-13T09:15:28;22.10;99.90
9998;DHT22;5038;53.064;8.624;2023-07-13T09:18:02;22.10;99.90
9998;DHT22;5038;53.064;8.624;2023-07-13T09:20:34;22.10;99.90
9998;DHT22;5038;53.064;8.624;2023-07-13T09:23:09;22.10;99.90
9998;DHT22;5038;53.064;8.624;2023-07-13T09:25:38;22.10;99.90
9998;DHT22;5038;53.064;8.624;2023-07-13T09:28:12;22.00;99.90
9998;DHT22;5038;53.064;8.624;2023-07-13T09:30:48;22.00;99.90
9998;DHT22;5038;53.064;8.624;2023-07-13T09:33:18;22.00;99.90
9998;DHT22;5038;53.064;8.624;2023-07-13T09:35:47;22.00;99.90
9998;DHT22;5038;53.064;8.624;2023-07-13T09:38:17;22.10;99.90
9998;DHT22;5038;53.064;8.624;2023-07-13T09:40:59;22.10;99.90
9998;DHT22;5038;53.064;8.624;2023-07-13T09:43:29;22.10;99.90
9998;DHT22;5038;53.064;8.624;2023-07-13T09:45:58;22.10;99.90
9998;DHT22;5038;53.064;8.624;2023-07-13T09:48:34;22.10;99.90
9998;DHT22;5038;53.064;8.624;2023-07-13T09:51:10;22.20;99.90
9998;DHT22;5038;53.064;8.624;2023-07-13T09:53:42;22.20;99.90
9998;DHT22;5038;53.064;8.624;2023-07-13T09:56:20;22.20;99.90
9998;DHT22;5038;53.064;8.624;2023-07-13T09:58:49;22.20;99.90
9998;DHT22;5038;53.064;8.624;2023-07-13T10:01:31;22.30;99.90
9998;DHT22;5038;53.064;8.624;2023-07-13T10:04:00;22.40;99.90
9998;DHT22;5038;53.064;8.624;2023-07-13T10:06:28;22.40;99.90
9998;DHT22;5038;53.064;8.624;2023-07-13T10:08:57;22.50;99.90
9998;DHT22;5038;53.064;8.624;2023-07-13T10:11:27;22.50;99.90
9998;DHT22;5038;53.064;8.624;2023-07-13T10:13:58;22.50;99.90
9998;DHT22;5038;53.064;8.624;2023-07-13T10:16:32;22.40;99.90
9998;DHT22;5038;53.064;8.624;2023-07-13T10:19:08;22.40;99.90
9998;DHT22;5038;53.064;8.624;2023-07-13T10:21:46;22.50;99.90
9998;DHT22;5038;53.064;8.624;2023-07-13T10:24:18;22.50;99.90
9998;DHT22;5038;53.064;8.624;2023-07-13T10:26:53;22.50;99.90
9998;DHT22;5038;53.064;8.624;2023-07-13T10:29:26;22.40;99.90
9998;DHT22;5038;53.064;8.624;2023-07-13T10:31:56;22.20;99.90
9998;DHT22;5038;53.064;8.624;2023-07-13T10:34:25;22.00;99.90
9998;DHT22;5038;53.064;8.624;2023-07-13T10:36:53;21.90;99.90
9998;DHT22;5038;53.064;8.624;2023-07-13T10:39:25;21.80;99.90
9998;DHT22;5038;53.064;8.624;2023-07-13T10:41:59;21.70;99.90
9998;DHT22;5038;53.064;8.624;2023-07-13T10:44:31;21.60;99.90
9998;DHT22;5038;53.064;8.624;2023-07-13T10:47:03;21.50;99.90
9998;DHT22;5038;53.064;8.624;2023-07-13T10:49:34;21.40;99.90
9998;DHT22;5038;53.064;8.624;2023-07-13T10:52:04;21.30;99.90
9998;DHT22;5038;53.064;8.624;2023-07-13T10:54:33;21.30;99.90
9998;DHT22;5038;53.064;8.624;2023-07-13T10:57:14;21.30;99.90
9998;DHT22;5038;53.064;8.624;2023-07-13T10:59:46;21.20;99.90
9998;DHT22;5038;53.064;8.624;2023-07-13T11:02:24;21.10;99.90
9998;DHT22;5038;53.064;8.624;2023-07-13T11:04:54;21.00;99.90
9998;DHT22;5038;53.064;8.624;2023-07-13T11:07:26;21.00;99.90
9998;DHT22;5038;53.064;8.624;2023-07-13T11:09:55;20.90;99.90
9998;DHT22;5038;53.064;8.624;2023-07-13T11:15:13;20.60;99.90
9998;DHT22;5038;53.064;8.624;2023-07-13T11:17:50;20.50;99.90
9998;DHT22;5038;53.064;8.624;2023-07-13T11:20:37;20.50;99.90
9998;DHT22;5038;53.064;8.624;2023-07-13T11:23:09;20.40;99.90
9998;DHT22;5038;53.064;8.624;2023-07-13T11:25:44;20.40;99.90
9998;DHT22;5038;53.064;8.624;2023-07-13T11:28:17;20.30;99.90
9998;DHT22;5038;53.064;8.624;2023-07-13T11:30:47;20.20;99.90
9998;DHT22;5038;53.064;8.624;2023-07-13T11:33:20;20.10;99.90
9998;DHT22;5038;53.064;8.624;2023-07-13T11:35:53;19.90;99.90
9998;DHT22;5038;53.064;8.624;2023-07-13T11:38:30;19.80;99.90
9998;DHT22;5038;53.064;8.624;2023-07-13T11:41:02;19.60;99.90
9998;DHT22;5038;53.064;8.624;2023-07-13T11:43:31;19.50;99.90
9998;DHT22;5038;53.064;8.624;2023-07-13T11:46:15;19.40;99.90
9998;DHT22;5038;53.064;8.624;2023-07-13T11:48:45;19.30;99.90
9998;DHT22;5038;53.064;8.624;2023-07-13T11:51:20;19.10;99.90
9998;DHT22;5038;53.064;8.624;2023-07-13T11:53:50;19.00;99.90
9998;DHT22;5038;53.064;8.624;2023-07-13T11:56:23;18.80;99.90
9998;DHT22;5038;53.064;8.624;2023-07-13T11:58:54;18.60;99.90
9998;DHT22;5038;53.064;8.624;2023-07-13T12:01:24;18.50;99.90
9998;DHT22;5038;53.064;8.624;2023-07-13T12:03:55;18.40;99.90
9998;DHT22;5038;53.064;8.624;2023-07-13T12:06:28;18.30;99.90
9998;DHT22;5038;53.064;8.624;2023-07-13T12:08:57;18.20;99.90
9998;DHT22;5038;53.064;8.624;2023-07-13T12:11:27;18.10;99.90
9998;DHT22;5038;53.064;8.624;2023-07-13T12:13:55;18.10;99.90
9998;DHT22;5038;53.064;8.624;2023-07-13T12:16:27;18.00;99.90
9998;DHT22;5038;53.064;8.624;2023-07-13T12:18:58;18.00;99.90
9998;DHT22;5038;53.064;8.624;2023-07-13T12:21:30;18.00;99.90
9998;DHT22;5038;53.064;8.624;2023-07-13T12:24:00;18.00;99.90
9998;DHT22;5038;53.064;8.624;2023-07-13T12:26:29;17.90;99.90
9998;DHT22;5038;53.064;8.624;2023-07-13T12:29:00;18.00;99.90
9998;DHT22;5038;53.064;8.624;2023-07-13T12:31:35;18.00;99.90
9998;DHT22;5038;53.064;8.624;2023-07-13T12:34:07;18.00;99.90
9998;DHT22;5038;53.064;8.624;2023-07-13T12:36:37;18.10;99.90
9998;DHT22;5038;53.064;8.624;2023-07-13T12:39:14;18.10;99.90
9998;DHT22;5038;53.064;8.624;2023-07-13T12:41:43;18.30;99.90
9998;DHT22;5038;53.064;8.624;2023-07-13T12:44:13;18.40;99.90
9998;DHT22;5038;53.064;8.624;2023-07-13T12:46:56;18.50;99.90
9998;DHT22;5038;53.064;8.624;2023-07-13T12:49:28;18.60;99.90
9998;DHT22;5038;53.064;8.624;2023-07-13T12:51:59;18.60;99.90
9998;DHT22;5038;53.064;8.624;2023-07-13T12:54:28;18.70;99.90
9998;DHT22;5038;53.064;8.624;2023-07-13T12:56:58;18.70;99.90
9998;DHT22;5038;53.064;8.624;2023-07-13T12:59:31;18.80;99.90
9998;DHT22;5038;53.064;8.624;2023-07-13T13:02:26;18.80;99.90
9998;DHT22;5038;53.064;8.624;2023-07-13T13:04:57;18.90;99.90
9998;DHT22;5038;53.064;8.624;2023-07-13T13:07:26;19.10;99.90
9998;DHT22;5038;53.064;8.624;2023-07-13T13:09:56;19.20;99.90
9998;DHT22;5038;53.064;8.624;2023-07-13T13:12:24;19.30;99.90
9998;DHT22;5038;53.064;8.624;2023-07-13T13:14:53;19.40;99.90
9998;DHT22;5038;53.064;8.624;2023-07-13T13:17:30;19.60;99.90
9998;DHT22;5038;53.064;8.624;2023-07-13T13:20:00;19.60;99.90
9998;DHT22;5038;53.064;8.624;2023-07-13T13:25:17;19.70;99.90
9998;DHT22;5038;53.064;8.624;2023-07-13T13:27:46;19.80;99.90
9998;DHT22;5038;53.064;8.624;2023-07-13T13:30:16;19.80;99.90
9998;DHT22;5038;53.064;8.624;2023-07-13T13:32:47;19.80;99.90
9998;DHT22;5038;53.064;8.624;2023-07-13T13:35:18;19.90;99.90
9998;DHT22;5038;53.064;8.624;2023-07-13T13:37:48;19.90;99.90
9998;DHT22;5038;53.064;8.624;2023-07-13T13:40:19;20.00;99.90
9998;DHT22;5038;53.064;8.624;2023-07-13T13:42:48;19.90;99.90
9998;DHT22;5038;53.064;8.624;2023-07-13T13:45:17;20.00;99.90
9998;DHT22;5038;53.064;8.624;2023-07-13T13:47:47;20.00;99.90
9998;DHT22;5038;53.064;8.624;2023-07-13T13:50:20;20.00;99.90
9998;DHT22;5038;53.064;8.624;2023-07-13T13:52:49;20.00;99.90
9998;DHT22;5038;53.064;8.624;2023-07-13T13:55:20;20.10;99.90
9998;DHT22;5038;53.064;8.624;2023-07-13T13:57:50;20.10;99.90
9998;DHT22;5038;53.064;8.624;2023-07-13T14:00:20;20.20;99.90
9998;DHT22;5038;53.064;8.624;2023-07-13T14:02:49;20.30;99.90
9998;DHT22;5038;53.064;8.624;2023-07-13T14:05:22;20.30;99.90
9998;DHT22;5038;53.064;8.624;2023-07-13T14:07:50;20.40;99.90
9998;DHT22;5038;53.064;8.624;2023-07-13T14:10:20;20.40;99.90
9998;DHT22;5038;53.064;8.624;2023-07-13T14:12:51;20.60;99.90
9998;DHT22;5038;53.064;8.624;2023-07-13T14:15:22;20.70;99.90
9998;DHT22;5038;53.064;8.624;2023-07-13T14:17:50;20.70;99.90
9998;DHT22;5038;53.064;8.624;2023-07-13T14:20:22;20.80;99.90
9998;DHT22;5038;53.064;8.624;2023-07-13T14:22:51;20.90;99.90
9998;DHT22;5038;53.064;8.624;2023-07-13T14:25:20;20.90;99.90
9998;DHT22;5038;53.064;8.624;2023-07-13T14:27:51;21.00;99.90
9998;DHT22;5038;53.064;8.624;2023-07-13T14:30:22;21.10;99.90
9998;DHT22;5038;53.064;8.624;2023-07-13T14:32:51;21.10;99.90
9998;DHT22;5038;53.064;8.624;2023-07-13T14:35:21;21.20;99.90
9998;DHT22;5038;53.064;8.624;2023-07-13T14:37:50;21.30;99.90
9998;DHT22;5038;53.064;8.624;2023-07-13T14:40:23;21.30;99.90
9998;DHT22;5038;53.064;8.624;2023-07-13T14:42:52;21.40;99.90
9998;DHT22;5038;53.064;8.624;2023-07-13T14:45:20;21.40;99.90
9998;DHT22;5038;53.064;8.624;2023-07-13T14:47:49;21.40;99.90
9998;DHT22;5038;53.064;8.624;2023-07-13T14:50:18;21.50;99.90
9998;DHT22;5038;53.064;8.624;2023-07-13T14:52:48;21.50;99.90
9998;DHT22;5038;53.064;8.624;2023-07-13T14:55:18;21.40;99.90
9998;DHT22;5038;53.064;8.624;2023-07-13T14:57:46;21.30;99.90
9998;DHT22;5038;53.064;8.624;2023-07-13T15:00:16;21.30;99.90
9998;DHT22;5038;53.064;8.624;2023-07-13T15:02:48;21.20;99.90
9998;DHT22;5038;53.064;8.624;2023-07-13T15:05:21;21.20;99.90
9998;DHT22;5038;53.064;8.624;2023-07-13T15:07:53;21.10;99.90
9998;DHT22;5038;53.064;8.624;2023-07-13T15:10:25;21.00;99.90
9998;DHT22;5038;53.064;8.624;2023-07-13T15:12:58;20.80;99.90
9998;DHT22;5038;53.064;8.624;2023-07-13T15:15:27;20.60;99.90
9998;DHT22;5038;53.064;8.624;2023-07-13T15:17:56;20.50;99.90
9998;DHT22;5038;53.064;8.624;2023-07-13T15:20:26;20.20;99.90
9998;DHT22;5038;53.064;8.624;2023-07-13T15:23:00;20.00;99.90
9998;DHT22;5038;53.064;8.624;2023-07-13T15:25:30;19.90;99.90
9998;DHT22;5038;53.064;8.624;2023-07-13T15:28:00;19.70;99.90
9998;DHT22;5038;53.064;8.624;2023-07-13T15:30:40;19.60;99.90
9998;DHT22;5038;53.064;8.624;2023-07-13T15:33:13;19.50;99.90
9998;DHT22;5038;53.064;8.624;2023-07-13T15:35:43;19.40;99.90
9998;DHT22;5038;53.064;8.624;2023-07-13T15:38:18;19.20;99.90
9998;DHT22;5038;53.064;8.624;2023-07-13T15:40:48;19.10;99.90
9998;DHT22;5038;53.064;8.624;2023-07-13T15:43:18;19.00;99.90
9998;DHT22;5038;53.064;8.624;2023-07-13T15:45:47;19.00;99.90
9998;DHT22;5038;53.064;8.624;2023-07-13T15:48:17;18.90;99.90
9998;DHT22;5038;53.064;8.624;2023-07-13T15:50:47;18.90;99.90
9998;DHT22;5038;53.064;8.624;2023-07-13T15:53:19;18.80;99.90
9998;DHT22;5038;53.064;8.624;2023-07-13T15:55:48;18.80;99.90
9998;DHT22;5038;53.064;8.624;2023-07-13T15:58:17;18.70;99.90
9998;DHT22;5038;53.064;8.624;2023-07-13T16:00:47;18.60;99.90
9998;DHT22;5038;53.064;8.624;2023-07-13T16:03:17;18.60;99.90
9998;DHT22;5038;53.064;8.624;2023-07-13T16:05:46;18.60;99.90
9998;DHT22;5038;53.064;8.624;2023-07-13T16:08:23;18.60;99.90
9998;DHT22;5038;53.064;8.624;2023-07-13T16:10:52;18.60;99.90
9998;DHT22;5038;53.064;8.624;2023-07-13T16:13:20;18.60;99.90
9998;DHT22;5038;53.064;8.624;2023-07-13T16:15:51;18.60;99.90
9998;DHT22;5038;53.064;8.624;2023-07-13T16:18:20;18.50;99.90
9998;DHT22;5038;53.064;8.624;2023-07-13T16:20:48;18.60;99.90
9998;DHT22;5038;53.064;8.624;2023-07-13T16:23:18;18.60;99.90
9998;DHT22;5038;53.064;8.624;2023-07-13T16:25:47;18.60;99.90
9998;DHT22;5038;53.064;8.624;2023-07-13T16:28:16;18.60;99.90
9998;DHT22;5038;53.064;8.624;2023-07-13T16:30:44;18.50;99.90